createdAt,value
2023-12-13T00:00:34.141Z,71.37
2023-12-13T00:03:02.586Z,71.07
2023-12-13T00:05:29.169Z,71.08
2023-12-13T00:07:55.655Z,71.11
2023-12-13T00:10:22.212Z,71.13
2023-12-13T00:12:48.712Z,71.15
2023-12-13T00:15:15.271Z,71.13
2023-12-13T00:17:42.852Z,71.23
2023-12-13T00:20:09.921Z,71.21
2023-12-13T00:22:36.541Z,70.97
2023-12-13T00:25:03.061Z,71.13
2023-12-13T00:27:29.533Z,71.14
2023-12-13T00:29:56.098Z,71.09
2023-12-13T00:32:22.750Z,71.32
2023-12-13T00:34:49.599Z,71.10
2023-12-13T00:37:16.199Z,71.46
2023-12-13T00:39:43.358Z,71.40
2023-12-13T00:42:10.116Z,71.24
2023-12-13T00:44:37.935Z,71.20
2023-12-13T00:47:04.484Z,71.41
2023-12-13T00:49:31.003Z,71.17
2023-12-13T00:51:57.563Z,71.33
2023-12-13T00:54:24.078Z,71.13
2023-12-13T00:56:50.580Z,71.25
2023-12-13T00:59:17.031Z,71.19
2023-12-13T01:01:45.110Z,71.31
2023-12-13T01:04:11.999Z,71.18
2023-12-13T01:06:38.495Z,71.37
2023-12-13T01:09:05.038Z,71.28
2023-12-13T01:11:31.532Z,71.13
2023-12-13T01:13:58.017Z,71.12
2023-12-13T01:16:24.530Z,71.05
2023-12-13T01:18:51.151Z,71.19
2023-12-13T01:21:17.652Z,71.11
2023-12-13T01:23:44.129Z,71.15
2023-12-13T01:26:10.643Z,71.10
2023-12-13T01:28:37.135Z,71.08
2023-12-13T01:31:09.804Z,71.15
2023-12-13T01:33:36.693Z,71.05
2023-12-13T01:36:03.752Z,71.30
2023-12-13T01:38:30.495Z,71.38
2023-12-13T01:41:11.472Z,71.19
2023-12-13T01:43:40.953Z,71.05
2023-12-13T01:46:07.692Z,71.33
2023-12-13T01:48:34.369Z,71.11
2023-12-13T01:51:00.935Z,71.29
2023-12-13T01:53:27.473Z,71.31
2023-12-13T01:55:55.116Z,71.07
2023-12-13T01:58:21.687Z,71.21
2023-12-13T02:00:48.298Z,70.94
2023-12-13T02:03:14.799Z,70.80
2023-12-13T02:05:41.406Z,70.91
2023-12-13T02:08:08.052Z,70.86
2023-12-13T02:10:34.898Z,70.83
2023-12-13T02:13:01.478Z,70.68
2023-12-13T02:15:27.964Z,70.90
2023-12-13T02:17:54.515Z,70.99
2023-12-13T02:20:21.520Z,71.02
2023-12-13T02:22:48.224Z,71.10
2023-12-13T02:25:22.866Z,70.87
2023-12-13T02:27:49.649Z,71.03
2023-12-13T02:30:16.139Z,70.79
2023-12-13T02:32:42.673Z,70.79
2023-12-13T02:35:09.141Z,70.71
2023-12-13T02:37:36.086Z,70.66
2023-12-13T02:40:04.435Z,70.69
2023-12-13T02:42:31.353Z,70.96
2023-12-13T02:44:57.922Z,70.76
2023-12-13T02:47:26.565Z,70.89
2023-12-13T02:49:53.571Z,70.80
2023-12-13T02:52:20.193Z,70.68
2023-12-13T02:54:46.675Z,70.80
2023-12-13T02:57:13.393Z,70.84
2023-12-13T02:59:39.873Z,70.97
2023-12-13T03:02:06.462Z,70.79
2023-12-13T03:04:33.024Z,71.00
2023-12-13T03:06:59.894Z,71.09
2023-12-13T03:09:26.406Z,71.01
2023-12-13T03:11:52.885Z,71.28
2023-12-13T03:14:19.332Z,71.17
2023-12-13T03:16:45.812Z,71.40
2023-12-13T03:19:12.743Z,71.30
2023-12-13T03:21:39.309Z,71.18
2023-12-13T03:24:05.892Z,71.29
2023-12-13T03:26:32.420Z,71.23
2023-12-13T03:28:58.908Z,71.22
2023-12-13T03:31:25.401Z,71.36
2023-12-13T03:33:51.954Z,71.23
2023-12-13T03:36:18.572Z,71.20
2023-12-13T03:38:47.662Z,71.16
2023-12-13T03:41:14.230Z,71.05
2023-12-13T03:43:40.865Z,71.00
2023-12-13T03:46:07.448Z,71.17
2023-12-13T03:48:34.069Z,71.04
2023-12-13T03:51:02.466Z,70.97
2023-12-13T03:53:29.340Z,70.89
2023-12-13T03:55:56.007Z,70.88
2023-12-13T03:58:22.618Z,70.88
2023-12-13T04:00:49.308Z,71.06
2023-12-13T04:03:15.987Z,70.80
2023-12-13T04:05:42.535Z,70.83
2023-12-13T04:08:09.712Z,70.80
2023-12-13T04:10:36.258Z,70.84
2023-12-13T04:13:02.801Z,70.74
2023-12-13T04:15:29.238Z,70.71
2023-12-13T04:17:56.255Z,70.78
2023-12-13T04:20:22.755Z,70.92
2023-12-13T04:22:49.276Z,70.87
2023-12-13T04:25:15.915Z,70.99
2023-12-13T04:27:42.522Z,70.77
2023-12-13T04:30:09.798Z,71.04
2023-12-13T04:32:36.413Z,70.67
2023-12-13T04:35:03.013Z,70.83
2023-12-13T04:37:29.870Z,70.98
2023-12-13T04:39:56.633Z,70.79
2023-12-13T04:42:23.123Z,70.79
2023-12-13T04:44:50.717Z,70.75
2023-12-13T04:47:17.407Z,70.70
2023-12-13T04:49:43.909Z,70.72
2023-12-13T04:52:10.478Z,70.87
2023-12-13T04:54:38.412Z,70.74
2023-12-13T04:57:05.482Z,70.62
2023-12-13T04:59:31.925Z,70.71
2023-12-13T05:01:58.410Z,70.43
2023-12-13T05:04:24.877Z,70.49
2023-12-13T05:06:51.370Z,70.41
2023-12-13T05:09:17.853Z,70.40
2023-12-13T05:11:44.361Z,70.29
2023-12-13T05:14:10.884Z,70.31
2023-12-13T05:16:37.354Z,70.14
2023-12-13T05:19:04.102Z,70.27
2023-12-13T05:21:30.640Z,70.38
2023-12-13T05:23:57.032Z,70.38
2023-12-13T05:26:23.622Z,70.28
2023-12-13T05:28:50.251Z,70.24
2023-12-13T05:31:20.325Z,70.27
2023-12-13T05:33:47.037Z,70.40
2023-12-13T05:36:13.528Z,70.45
2023-12-13T05:38:41.038Z,70.31
2023-12-13T05:41:07.504Z,70.13
2023-12-13T05:43:36.532Z,70.03
2023-12-13T05:46:06.700Z,70.20
2023-12-13T05:48:33.529Z,70.00
2023-12-13T05:51:00.422Z,69.83
2023-12-13T05:53:26.900Z,69.77
2023-12-13T05:55:53.509Z,69.90
2023-12-13T05:58:20.014Z,69.78
2023-12-13T06:00:46.581Z,69.98
2023-12-13T06:03:13.045Z,69.75
2023-12-13T06:05:39.667Z,69.53
2023-12-13T06:08:06.292Z,69.48
2023-12-13T06:10:32.801Z,69.72
2023-12-13T06:12:59.349Z,69.36
2023-12-13T06:15:25.981Z,69.33
2023-12-13T06:17:52.503Z,69.21
2023-12-13T06:20:19.087Z,69.13
2023-12-13T06:22:45.600Z,69.25
2023-12-13T06:25:12.287Z,69.09
2023-12-13T06:27:38.761Z,69.19
2023-12-13T06:30:05.585Z,69.10
2023-12-13T06:32:32.093Z,68.94
2023-12-13T06:34:58.626Z,68.93
2023-12-13T06:37:25.122Z,68.98
2023-12-13T06:39:52.828Z,68.93
2023-12-13T06:42:19.528Z,68.90
2023-12-13T06:44:46.362Z,69.15
2023-12-13T06:47:12.884Z,68.93
2023-12-13T06:49:39.427Z,68.78
2023-12-13T06:52:06.005Z,68.83
2023-12-13T06:54:32.486Z,68.95
2023-12-13T06:56:59.339Z,68.78
2023-12-13T06:59:25.832Z,68.94
2023-12-13T07:01:52.986Z,68.66
2023-12-13T07:04:19.671Z,68.67
2023-12-13T07:06:46.199Z,68.77
2023-12-13T07:09:16.250Z,68.82
2023-12-13T07:11:44.176Z,68.68
2023-12-13T07:14:11.102Z,68.79
2023-12-13T07:16:37.748Z,68.85
2023-12-13T07:19:04.268Z,68.75
2023-12-13T07:21:31.309Z,68.74
2023-12-13T07:23:57.834Z,68.61
2023-12-13T07:26:25.388Z,68.49
2023-12-13T07:28:52.765Z,68.53
2023-12-13T07:31:19.825Z,68.72
2023-12-13T07:33:46.695Z,68.75
2023-12-13T07:36:14.510Z,68.61
2023-12-13T07:38:42.634Z,68.79
2023-12-13T07:41:09.548Z,68.83
2023-12-13T07:43:36.245Z,68.80
2023-12-13T07:46:02.787Z,68.59
2023-12-13T07:48:31.341Z,68.72
2023-12-13T07:50:58.354Z,68.66
2023-12-13T07:53:25.186Z,68.52
2023-12-13T07:55:51.976Z,68.64
2023-12-13T07:58:20.636Z,68.74
2023-12-13T08:00:47.358Z,68.83
2023-12-13T08:03:13.892Z,68.51
2023-12-13T08:05:40.570Z,68.54
2023-12-13T08:08:07.145Z,68.77
2023-12-13T08:10:33.687Z,68.66
2023-12-13T08:13:00.364Z,68.76
2023-12-13T08:15:26.823Z,68.58
2023-12-13T08:17:53.426Z,68.56
2023-12-13T08:20:20.036Z,68.61
2023-12-13T08:22:47.615Z,68.71
2023-12-13T08:25:14.294Z,68.65
2023-12-13T08:27:40.873Z,68.74
2023-12-13T08:30:07.797Z,68.73
2023-12-13T08:32:34.313Z,68.60
2023-12-13T08:35:00.807Z,68.73
2023-12-13T08:37:27.276Z,68.65
2023-12-13T08:39:54.002Z,68.92
2023-12-13T08:42:20.729Z,68.99
2023-12-13T08:44:47.412Z,69.09
2023-12-13T08:47:14.279Z,68.97
2023-12-13T08:49:40.870Z,68.90
2023-12-13T08:52:07.290Z,69.04
2023-12-13T08:54:34.553Z,68.95
2023-12-13T08:57:01.915Z,68.94
2023-12-13T08:59:28.665Z,69.08
2023-12-13T09:01:55.180Z,68.93
2023-12-13T09:04:21.987Z,68.96
2023-12-13T09:06:48.454Z,68.87
2023-12-13T09:09:15.637Z,68.89
2023-12-13T09:11:42.183Z,68.87
2023-12-13T09:14:08.641Z,68.81
2023-12-13T09:16:35.176Z,68.77
2023-12-13T09:19:01.763Z,69.07
2023-12-13T09:21:28.362Z,68.90
2023-12-13T09:23:54.775Z,68.89
2023-12-13T09:26:21.309Z,69.04
2023-12-13T09:28:47.899Z,69.07
2023-12-13T09:31:14.764Z,68.83
2023-12-13T09:33:41.477Z,68.92
2023-12-13T09:36:08.381Z,68.81
2023-12-13T09:38:34.829Z,68.97
2023-12-13T09:41:01.333Z,68.87
2023-12-13T09:43:27.906Z,69.20
2023-12-13T09:45:54.829Z,69.17
2023-12-13T09:48:24.750Z,69.16
2023-12-13T09:50:58.469Z,69.29
2023-12-13T09:53:25.740Z,69.26
2023-12-13T09:55:53.347Z,69.28
2023-12-13T09:58:19.920Z,69.46
2023-12-13T10:00:46.519Z,69.21
2023-12-13T10:03:13.033Z,69.24
2023-12-13T10:05:43.955Z,69.08
2023-12-13T10:08:12.876Z,69.34
2023-12-13T10:10:39.497Z,69.14
2023-12-13T10:13:07.929Z,69.13
2023-12-13T10:15:34.423Z,69.07
2023-12-13T10:18:01.325Z,68.92
2023-12-13T10:20:28.239Z,68.89
2023-12-13T10:22:54.788Z,68.93
2023-12-13T10:25:21.812Z,69.11
2023-12-13T10:27:48.491Z,69.19
2023-12-13T10:30:15.004Z,69.42
2023-12-13T10:32:42.330Z,69.55
2023-12-13T10:35:08.939Z,69.84
2023-12-13T10:37:36.324Z,70.08
2023-12-13T10:40:06.457Z,70.54
2023-12-13T10:42:33.098Z,70.25
2023-12-13T10:44:59.575Z,70.08
2023-12-13T10:47:27.320Z,70.06
2023-12-13T10:49:54.770Z,70.01
2023-12-13T10:52:24.604Z,69.97
2023-12-13T10:54:52.092Z,69.75
2023-12-13T10:57:18.658Z,69.86
2023-12-13T10:59:45.753Z,69.99
2023-12-13T11:02:14.033Z,69.89
2023-12-13T11:04:40.639Z,69.48
2023-12-13T11:07:10.260Z,69.09
2023-12-13T11:09:51.916Z,69.10
2023-12-13T11:12:21.770Z,69.00
2023-12-13T11:14:51.961Z,68.96
2023-12-13T11:17:19.769Z,68.70
2023-12-13T11:19:47.137Z,68.81
2023-12-13T11:22:13.665Z,68.95
2023-12-13T11:24:43.060Z,68.92
2023-12-13T11:27:11.254Z,68.71
2023-12-13T11:29:37.784Z,68.68
2023-12-13T11:32:05.441Z,68.76
2023-12-13T11:34:36.056Z,68.62
2023-12-13T11:37:02.603Z,68.91
2023-12-13T11:39:29.759Z,68.50
2023-12-13T11:41:56.196Z,68.51
2023-12-13T11:44:22.789Z,68.28
2023-12-13T11:46:59.760Z,68.35
2023-12-13T11:49:27.389Z,68.31
2023-12-13T11:51:54.967Z,68.25
2023-12-13T11:54:21.461Z,68.48
2023-12-13T11:56:47.948Z,68.46
2023-12-13T11:59:14.925Z,68.39
2023-12-13T12:01:41.647Z,68.38
2023-12-13T12:04:08.525Z,68.12
2023-12-13T12:06:35.026Z,68.26
2023-12-13T12:09:02.117Z,68.52
2023-12-13T12:11:28.654Z,68.75
2023-12-13T12:13:58.497Z,68.59
2023-12-13T12:16:25.111Z,68.32
2023-12-13T12:18:53.543Z,68.22
2023-12-13T12:21:20.184Z,68.18
2023-12-13T12:23:46.715Z,68.25
2023-12-13T12:26:13.998Z,68.06
2023-12-13T12:28:41.383Z,68.22
2023-12-13T12:31:15.509Z,68.24
2023-12-13T12:33:44.068Z,68.21
2023-12-13T12:36:10.679Z,68.21
2023-12-13T12:38:38.855Z,68.05
2023-12-13T12:41:05.921Z,68.14
2023-12-13T12:43:32.605Z,68.25
2023-12-13T12:45:59.047Z,68.22
2023-12-13T12:48:25.761Z,68.21
2023-12-13T12:50:52.365Z,68.33
2023-12-13T12:53:19.999Z,68.13
2023-12-13T12:55:46.569Z,68.59
2023-12-13T12:58:13.089Z,68.43
2023-12-13T13:00:39.602Z,68.55
2023-12-13T13:03:08.125Z,68.68
2023-12-13T13:05:35.581Z,68.72
2023-12-13T13:08:02.499Z,68.54
2023-12-13T13:10:29.053Z,68.62
2023-12-13T13:12:55.570Z,68.49
2023-12-13T13:15:23.809Z,68.79
2023-12-13T13:17:51.267Z,68.68
2023-12-13T13:20:20.994Z,68.75
2023-12-13T13:22:47.606Z,68.74
2023-12-13T13:25:14.290Z,68.96
2023-12-13T13:27:41.075Z,69.05
2023-12-13T13:30:08.979Z,68.67
2023-12-13T13:32:35.687Z,68.80
2023-12-13T13:35:02.383Z,68.81
2023-12-13T13:37:28.907Z,69.02
2023-12-13T13:39:55.405Z,68.77
2023-12-13T13:42:21.979Z,68.85
2023-12-13T13:44:48.547Z,69.00
2023-12-13T13:47:15.118Z,68.91
2023-12-13T13:49:42.238Z,69.22
2023-12-13T13:52:09.053Z,69.06
2023-12-13T13:54:35.582Z,69.28
2023-12-13T13:57:05.448Z,69.04
2023-12-13T13:59:32.156Z,69.05
2023-12-13T14:01:58.809Z,69.27
2023-12-13T14:04:25.449Z,69.24
2023-12-13T14:06:51.950Z,69.08
2023-12-13T14:09:18.803Z,69.12
2023-12-13T14:11:45.324Z,69.15
2023-12-13T14:14:12.756Z,69.06
2023-12-13T14:16:41.632Z,69.38
2023-12-13T14:19:08.164Z,69.54
2023-12-13T14:21:35.119Z,69.62
2023-12-13T14:24:02.959Z,69.59
2023-12-13T14:26:30.427Z,69.84
2023-12-13T14:28:57.043Z,69.61
2023-12-13T14:31:25.307Z,69.69
2023-12-13T14:33:52.809Z,69.79
2023-12-13T14:36:19.406Z,69.53
2023-12-13T14:38:45.844Z,69.58
2023-12-13T14:41:12.269Z,69.64
2023-12-13T14:43:38.780Z,69.57
2023-12-13T14:46:05.827Z,69.40
2023-12-13T14:48:32.372Z,68.96
2023-12-13T14:50:59.613Z,68.84
2023-12-13T14:53:26.083Z,68.61
2023-12-13T14:55:52.756Z,68.42
2023-12-13T14:58:20.692Z,68.44
2023-12-13T15:00:47.700Z,68.63
2023-12-13T15:03:14.371Z,68.54
2023-12-13T15:05:41.390Z,68.52
2023-12-13T15:08:09.827Z,68.39
2023-12-13T15:10:36.470Z,68.40
2023-12-13T15:13:06.045Z,68.64
2023-12-13T15:15:34.136Z,68.49
2023-12-13T15:18:00.810Z,68.73
2023-12-13T15:20:27.481Z,68.75
2023-12-13T15:22:54.014Z,68.56
2023-12-13T15:25:21.240Z,68.72
2023-12-13T15:27:47.930Z,68.86
2023-12-13T15:30:14.645Z,68.79
2023-12-13T15:32:41.834Z,68.87
2023-12-13T15:35:10.868Z,68.93
2023-12-13T15:37:38.137Z,69.01
2023-12-13T15:40:05.805Z,69.23
2023-12-13T15:42:32.482Z,69.27
2023-12-13T15:44:58.977Z,69.08
2023-12-13T15:47:25.514Z,68.96
2023-12-13T15:49:52.176Z,68.94
2023-12-13T15:52:18.753Z,68.93
2023-12-13T15:54:45.174Z,68.89
2023-12-13T15:57:11.683Z,68.75
2023-12-13T15:59:38.149Z,68.70
2023-12-13T16:02:05.773Z,68.62
2023-12-13T16:04:34.489Z,68.74
2023-12-13T16:07:01.558Z,68.72
2023-12-13T16:09:28.306Z,68.57
2023-12-13T16:11:55.127Z,68.60
2023-12-13T16:14:24.233Z,68.56
2023-12-13T16:19:17.638Z,68.66
2023-12-13T16:21:44.415Z,68.63
2023-12-13T16:24:10.946Z,68.72
2023-12-13T16:26:37.712Z,68.85
2023-12-13T16:29:08.074Z,69.08
2023-12-13T16:31:39.989Z,69.24
2023-12-13T16:34:06.480Z,69.38
2023-12-13T16:36:33.000Z,69.42
2023-12-13T16:38:59.466Z,69.49
2023-12-13T16:41:26.332Z,69.68
2023-12-13T16:43:52.850Z,69.70
2023-12-13T16:46:19.870Z,69.76
2023-12-13T16:48:49.622Z,69.70
2023-12-13T16:51:19.747Z,69.74
2023-12-13T16:53:51.792Z,69.83
2023-12-13T16:56:18.999Z,69.70
2023-12-13T16:58:45.554Z,69.73
2023-12-13T17:01:12.298Z,69.75
2023-12-13T17:03:41.392Z,69.60
2023-12-13T17:06:08.113Z,69.85
2023-12-13T17:08:34.761Z,69.70
2023-12-13T17:11:01.475Z,69.67
2023-12-13T17:13:28.893Z,69.66
2023-12-13T17:15:55.372Z,69.69
2023-12-13T17:18:22.918Z,69.74
2023-12-13T17:20:50.552Z,69.83
2023-12-13T17:23:17.313Z,69.99
2023-12-13T17:25:43.886Z,70.12
2023-12-13T17:28:10.467Z,70.11
2023-12-13T17:30:37.675Z,70.11
2023-12-13T17:33:04.620Z,70.13
2023-12-13T17:35:31.614Z,70.08
2023-12-13T17:37:58.966Z,69.98
2023-12-13T17:40:25.658Z,70.02
2023-12-13T17:42:52.395Z,70.00
2023-12-13T17:45:18.909Z,69.95
2023-12-13T17:47:45.483Z,69.92
2023-12-13T17:50:12.112Z,69.83
2023-12-13T17:52:38.890Z,69.78
2023-12-13T17:55:06.443Z,69.91
2023-12-13T17:57:32.992Z,69.86
2023-12-13T17:59:59.938Z,69.94
2023-12-13T18:02:27.996Z,69.85
2023-12-13T18:04:54.633Z,69.87
2023-12-13T18:07:21.215Z,70.02
2023-12-13T18:09:48.541Z,70.07
2023-12-13T18:12:15.109Z,70.09
2023-12-13T18:14:41.554Z,70.01
2023-12-13T18:17:08.187Z,70.04
2023-12-13T18:19:34.787Z,69.86
2023-12-13T18:22:01.329Z,69.90
2023-12-13T18:24:27.802Z,69.97
2023-12-13T18:26:54.465Z,69.88
2023-12-13T18:29:20.934Z,69.99
2023-12-13T18:31:47.822Z,70.08
2023-12-13T18:34:15.327Z,70.15
2023-12-13T18:36:41.924Z,70.14
2023-12-13T18:39:08.484Z,70.12
2023-12-13T18:41:34.966Z,70.08
2023-12-13T18:44:01.618Z,70.03
2023-12-13T18:46:28.265Z,70.11
2023-12-13T18:48:57.026Z,69.99
2023-12-13T18:51:23.522Z,70.09
2023-12-13T18:53:50.008Z,70.29
2023-12-13T18:56:16.498Z,70.46
2023-12-13T18:58:43.027Z,70.54
2023-12-13T19:01:09.576Z,70.66
2023-12-13T19:03:36.124Z,70.52
2023-12-13T19:06:02.704Z,70.54
2023-12-13T19:08:29.260Z,70.56
2023-12-13T19:10:56.391Z,70.40
2023-12-13T19:13:23.199Z,70.44
2023-12-13T19:15:49.784Z,70.48
2023-12-13T19:18:18.051Z,70.64
2023-12-13T19:20:46.310Z,70.65
2023-12-13T19:23:13.449Z,70.67
2023-12-13T19:25:39.983Z,70.65
2023-12-13T19:28:09.899Z,70.51
2023-12-13T19:30:36.446Z,70.62
2023-12-13T19:33:03.029Z,70.65
2023-12-13T19:35:29.504Z,70.58
2023-12-13T19:37:56.053Z,70.63
2023-12-13T19:40:22.508Z,70.56
2023-12-13T19:42:49.839Z,70.60
2023-12-13T19:45:16.335Z,70.55
2023-12-13T19:47:42.882Z,70.78
2023-12-13T19:50:09.639Z,70.80
2023-12-13T19:52:36.243Z,70.84
2023-12-13T19:55:02.742Z,70.90
2023-12-13T19:57:29.171Z,70.95
2023-12-13T19:59:56.677Z,70.93
2023-12-13T20:02:23.831Z,70.92
2023-12-13T20:04:50.817Z,70.91
2023-12-13T20:07:19.473Z,71.02
2023-12-13T20:09:45.992Z,71.03
2023-12-13T20:12:12.602Z,71.05
2023-12-13T20:14:39.481Z,70.94
2023-12-13T20:17:06.113Z,71.08
2023-12-13T20:19:32.647Z,70.97
2023-12-13T20:21:59.538Z,70.97
2023-12-13T20:24:25.989Z,70.91
2023-12-13T20:26:53.013Z,70.87
2023-12-13T20:29:19.537Z,70.96
2023-12-13T20:31:46.122Z,70.95
2023-12-13T20:34:12.697Z,70.90
2023-12-13T20:36:39.227Z,70.89
2023-12-13T20:39:05.875Z,70.92
2023-12-13T20:41:32.376Z,70.93
2023-12-13T20:43:59.333Z,70.93
2023-12-13T20:46:25.952Z,70.82
2023-12-13T20:48:53.219Z,70.92
2023-12-13T20:51:19.719Z,70.87
2023-12-13T20:53:46.189Z,71.01
2023-12-13T20:56:13.140Z,70.99
2023-12-13T20:58:40.937Z,70.90
2023-12-13T21:01:07.506Z,70.98
2023-12-13T21:03:34.009Z,70.98
2023-12-13T21:06:00.570Z,71.04
2023-12-13T21:08:27.095Z,70.97
2023-12-13T21:10:53.550Z,70.97
2023-12-13T21:13:20.575Z,71.10
2023-12-13T21:15:47.348Z,71.01
2023-12-13T21:18:13.868Z,71.06
2023-12-13T21:20:40.989Z,71.04
2023-12-13T21:23:07.759Z,71.00
2023-12-13T21:25:34.491Z,71.09
2023-12-13T21:28:00.977Z,71.08
2023-12-13T21:30:27.519Z,70.95
2023-12-13T21:32:54.231Z,70.96
2023-12-13T21:35:20.883Z,70.89
2023-12-13T21:37:47.491Z,70.94
2023-12-13T21:40:14.069Z,70.87
2023-12-13T21:42:40.919Z,70.90
2023-12-13T21:45:08.191Z,71.00
2023-12-13T21:47:36.454Z,70.94
2023-12-13T21:50:03.693Z,71.00
2023-12-13T21:52:36.854Z,70.98
2023-12-13T21:55:04.258Z,70.91
2023-12-13T21:57:30.846Z,70.85
2023-12-13T21:59:57.639Z,70.85
2023-12-13T22:02:24.097Z,70.83
2023-12-13T22:04:50.683Z,70.92
2023-12-13T22:07:17.213Z,70.78
2023-12-13T22:09:43.651Z,70.74
2023-12-13T22:12:10.106Z,70.78
2023-12-13T22:14:36.590Z,70.66
2023-12-13T22:17:03.112Z,70.68
2023-12-13T22:19:41.755Z,70.67
2023-12-13T22:22:09.107Z,70.69
2023-12-13T22:24:35.578Z,70.70
2023-12-13T22:27:02.405Z,70.69
2023-12-13T22:29:28.901Z,70.53
2023-12-13T22:31:55.420Z,70.46
2023-12-13T22:34:21.914Z,70.55
2023-12-13T22:36:48.464Z,70.35
2023-12-13T22:39:14.995Z,70.30
2023-12-13T22:41:41.517Z,70.31
2023-12-13T22:44:08.001Z,70.24
2023-12-13T22:46:34.602Z,70.28
2023-12-13T22:49:01.133Z,70.25
2023-12-13T22:51:27.761Z,70.25
2023-12-13T22:53:54.266Z,70.32
2023-12-13T22:56:20.724Z,70.44
2023-12-13T22:58:47.197Z,70.38
2023-12-13T23:01:13.855Z,70.30
2023-12-13T23:03:40.773Z,70.30
2023-12-13T23:06:07.538Z,70.36
2023-12-13T23:08:34.118Z,70.32
2023-12-13T23:11:00.595Z,70.36
2023-12-13T23:13:27.824Z,70.37
2023-12-13T23:15:54.732Z,70.54
2023-12-13T23:18:21.306Z,70.30
2023-12-13T23:20:47.841Z,70.27
2023-12-13T23:23:18.495Z,70.24
2023-12-13T23:25:45.077Z,70.15
2023-12-13T23:28:12.000Z,70.21
2023-12-13T23:30:38.534Z,70.11
2023-12-13T23:33:05.057Z,70.20
2023-12-13T23:35:31.645Z,70.10
2023-12-13T23:37:58.297Z,70.00
2023-12-13T23:40:24.885Z,70.00
2023-12-13T23:42:51.359Z,70.00
2023-12-13T23:45:18.091Z,70.05
2023-12-13T23:47:44.632Z,69.99
2023-12-13T23:50:11.331Z,70.00
2023-12-13T23:52:38.169Z,70.02
2023-12-13T23:55:05.074Z,70.00
2023-12-13T23:57:31.798Z,70.05
2023-12-13T23:59:58.263Z,69.89
